Time;durP1;ratioP1;P1;durP2;ratioP2;P2;SDS_P1;SDS_P2;PMS_P1;PMS_P2;Temp;Humidity;BMP_temperature;BMP_pressure;BME280_temperature;BME280_humidity;BME280_pressure;Samples;Min_cycle;Max_cycle;Signal;HPM_P1;HPM_P2
2023/07/07 00:02:27;;;;;;;6.37;4.07;;;13.20;99.90;12.50;100931;;;;590841;239;24089;-77
2023/07/07 00:04:51;;;;;;;5.17;4.27;;;13.10;99.90;12.50;100929;;;;599721;239;24035;-80
2023/07/07 00:07:20;;;;;;;9.77;4.77;;;13.10;99.90;12.40;100934;;;;591109;239;24064;-79
2023/07/07 00:09:51;;;;;;;5.17;4.67;;;13.00;99.90;12.30;100933;;;;590776;239;24042;-78
2023/07/07 00:12:16;;;;;;;6.83;4.93;;;12.90;99.90;12.20;100925;;;;590989;239;24140;-81
2023/07/07 00:14:43;;;;;;;9.17;4.77;;;12.90;99.90;12.20;100925;;;;591197;239;24048;-79
2023/07/07 00:17:14;;;;;;;7.27;4.20;;;12.90;99.90;12.10;100928;;;;591150;239;24072;-79
2023/07/07 00:19:39;;;;;;;9.70;4.93;;;12.80;99.90;12.10;100928;;;;590814;238;24058;-79
2023/07/07 00:22:07;;;;;;;5.87;4.40;;;12.70;99.90;12.00;100926;;;;591060;239;24100;-78
2023/07/07 00:24:39;;;;;;;6.93;4.37;;;12.70;99.90;12.00;100931;;;;591445;239;24032;-79
2023/07/07 00:27:07;;;;;;;8.23;4.40;;;12.60;99.90;11.90;100921;;;;599717;238;24089;-76
2023/07/07 00:29:31;;;;;;;9.47;3.57;;;12.60;99.90;11.90;100922;;;;578797;244;24137;-77
2023/07/07 00:31:59;;;;;;;9.47;4.53;;;12.50;99.90;11.90;100923;;;;578131;244;24099;-80
2023/07/07 00:34:30;;;;;;;5.50;3.97;;;12.50;99.90;11.80;100926;;;;591676;238;24045;-80
2023/07/07 00:36:58;;;;;;;4.13;3.73;;;12.40;99.90;11.80;100933;;;;593067;238;24037;-77
2023/07/07 00:39:26;;;;;;;5.50;4.30;;;12.40;99.90;11.70;100918;;;;592347;238;24039;-78
2023/07/07 00:41:54;;;;;;;5.73;3.63;;;12.40;99.90;11.70;100920;;;;592868;238;24031;-79
2023/07/07 00:44:22;;;;;;;5.63;3.90;;;12.40;99.90;11.70;100928;;;;592005;238;24168;-78
2023/07/07 00:46:50;;;;;;;4.03;3.63;;;12.30;99.90;11.70;100925;;;;591334;238;24098;-79
2023/07/07 00:49:18;;;;;;;6.23;4.03;;;12.30;99.90;11.60;100921;;;;591790;238;24116;-78
2023/07/07 00:51:52;;;;;;;5.63;4.27;;;12.30;99.90;11.60;100921;;;;591358;238;24112;-77
2023/07/07 00:54:15;;;;;;;5.20;3.53;;;12.20;99.90;11.60;100923;;;;590868;239;24030;-78
2023/07/07 00:56:44;;;;;;;7.17;4.30;;;12.20;99.90;11.50;100929;;;;590910;239;24053;-77
2023/07/07 00:59:18;;;;;;;5.57;3.60;;;12.10;99.90;11.50;100920;;;;590681;239;24192;-76
2023/07/07 01:01:50;;;;;;;8.23;4.10;;;12.10;99.90;11.50;100931;;;;590804;239;24104;-77
2023/07/07 01:04:14;;;;;;;8.37;3.87;;;12.10;99.90;11.40;100931;;;;590775;239;24080;-78
2023/07/07 01:06:42;;;;;;;5.00;3.67;;;12.10;99.90;11.40;100928;;;;590854;239;25120;-77
2023/07/07 01:09:14;;;;;;;4.00;3.70;;;12.00;99.90;11.40;100932;;;;591514;239;24084;-77
2023/07/07 01:11:41;;;;;;;6.07;4.00;;;12.00;99.90;11.30;100934;;;;590916;239;24137;-77
2023/07/07 01:14:06;;;;;;;5.00;3.80;;;12.00;99.90;11.30;100926;;;;567521;248;24169;-77
2023/07/07 01:16:56;;;;;;;4.60;3.40;;;12.00;99.90;11.30;100922;;;;578037;241;25109;-76
2023/07/07 01:20:00;;;;;;;9.07;3.70;;;11.90;99.90;11.30;100926;;;;586258;238;24052;-76
2023/07/07 01:22:43;;;;;;;6.77;3.90;;;11.90;99.90;11.30;100928;;;;590987;239;24104;-78
2023/07/07 01:25:17;;;;;;;4.97;3.50;;;11.90;99.90;11.30;100934;;;;590307;239;24051;-76
2023/07/07 01:28:14;;;;;;;4.40;3.83;;;11.90;99.90;11.20;100921;;;;590646;239;24080;-77
2023/07/07 01:30:54;;;;;;;7.63;4.83;;;11.90;99.90;11.30;100918;;;;591308;239;24121;-80
2023/07/07 01:33:24;;;;;;;8.80;3.87;;;11.90;99.90;11.20;100921;;;;591623;239;24103;-80
2023/07/07 01:35:52;;;;;;;9.27;4.75;;;11.90;99.90;11.20;100920;;;;587092;239;46214;-80
2023/07/07 01:38:32;;;;;;;6.47;3.40;;;11.90;99.90;11.20;100924;;;;592460;237;24097;-78
2023/07/07 01:41:21;;;;;;;3.43;3.13;;;11.80;99.90;11.20;100922;;;;591579;239;24053;-77
2023/07/07 01:43:52;;;;;;;5.10;3.27;;;11.80;99.90;11.20;100930;;;;590591;239;24107;-77
2023/07/07 01:46:25;;;;;;;5.50;3.50;;;11.80;99.90;11.20;100922;;;;589014;238;24128;-77
2023/07/07 01:48:56;;;;;;;3.70;3.40;;;11.80;99.90;11.10;100917;;;;592410;238;24135;-77
2023/07/07 01:51:24;;;;;;;7.30;3.23;;;11.80;99.90;11.10;100916;;;;591495;238;24074;-77
2023/07/07 01:53:56;;;;;;;6.37;3.97;;;11.80;99.90;11.10;100924;;;;591738;238;24037;-80
2023/07/07 01:56:20;;;;;;;4.87;3.73;;;11.70;99.90;11.10;100924;;;;591756;238;24061;-80
2023/07/07 01:58:51;;;;;;;8.80;3.83;;;11.70;99.90;11.10;100922;;;;592016;238;24094;-77
2023/07/07 02:01:16;;;;;;;5.70;3.87;;;11.70;99.90;11.10;100926;;;;591067;238;24224;-76
2023/07/07 02:03:48;;;;;;;8.00;4.53;;;11.70;99.90;11.00;100924;;;;591381;239;24080;-77
2023/07/07 02:06:12;;;;;;;4.37;3.80;;;11.70;99.90;11.00;100922;;;;590528;239;24079;-76
2023/07/07 02:08:40;;;;;;;6.50;3.97;;;11.60;99.90;11.00;100925;;;;591076;239;24101;-77
2023/07/07 02:11:08;;;;;;;4.27;3.60;;;11.60;99.90;11.00;100927;;;;591416;239;24035;-77
2023/07/07 02:13:39;;;;;;;6.13;3.90;;;11.60;99.90;11.00;100918;;;;590817;239;24156;-77
2023/07/07 02:16:07;;;;;;;6.20;4.33;;;11.60;99.90;11.00;100924;;;;590686;239;24092;-77
2023/07/07 02:18:33;;;;;;;5.73;4.27;;;11.60;99.90;11.00;100919;;;;588060;239;25124;-76
2023/07/07 02:21:01;;;;;;;8.67;4.97;;;11.60;99.90;11.00;100921;;;;590928;239;24127;-76
2023/07/07 02:23:29;;;;;;;5.07;4.17;;;11.60;99.90;11.00;100916;;;;590599;239;24074;-77
2023/07/07 02:25:57;;;;;;;11.23;5.03;;;11.60;99.90;11.00;100917;;;;590827;239;24133;-77
2023/07/07 02:28:25;;;;;;;6.03;4.10;;;11.60;99.90;11.00;100918;;;;590509;239;24110;-76
2023/07/07 02:30:53;;;;;;;5.53;4.90;;;11.60;99.90;11.00;100921;;;;590738;239;24091;-77
2023/07/07 02:33:31;;;;;;;6.13;4.00;;;11.60;99.90;11.00;100925;;;;590651;239;24065;-78
2023/07/07 02:35:49;;;;;;;10.97;4.77;;;11.60;99.90;11.00;100919;;;;589913;239;24077;-77
2023/07/07 02:38:25;;;;;;;5.40;4.13;;;11.60;99.90;11.00;100916;;;;590986;239;24078;-78
2023/07/07 02:40:51;;;;;;;7.40;4.17;;;11.60;99.90;11.10;100927;;;;591339;239;25320;-79
2023/07/07 02:43:19;;;;;;;4.37;3.97;;;11.60;99.90;11.10;100919;;;;591389;233;24040;-78
2023/07/07 02:45:46;;;;;;;7.27;4.50;;;11.60;99.90;11.10;100928;;;;591123;239;24061;-77
2023/07/07 02:48:14;;;;;;;5.53;3.93;;;11.70;99.90;11.10;100922;;;;590789;239;24060;-76
2023/07/07 02:50:42;;;;;;;5.77;4.70;;;11.70;99.90;11.10;100929;;;;590727;239;24062;-77
2023/07/07 02:53:10;;;;;;;5.00;4.20;;;11.70;99.90;11.20;100918;;;;590547;239;24052;-77
2023/07/07 02:55:41;;;;;;;7.23;4.83;;;11.70;99.90;11.20;100923;;;;600024;238;24023;-77
2023/07/07 02:58:10;;;;;;;6.67;4.63;;;11.80;99.90;11.30;100921;;;;600707;234;24075;-77
2023/07/07 03:00:34;;;;;;;8.57;3.97;;;11.80;99.90;11.30;100920;;;;600544;238;24099;-77
2023/07/07 03:03:03;;;;;;;5.67;4.47;;;11.90;99.90;11.40;100922;;;;591598;238;24079;-77
2023/07/07 03:05:31;;;;;;;4.90;4.03;;;12.00;99.90;11.50;100919;;;;591365;238;24043;-77
2023/07/07 03:08:00;;;;;;;7.90;4.60;;;12.10;99.90;11.60;100929;;;;591310;238;24058;-78
2023/07/07 03:10:28;;;;;;;4.83;4.30;;;12.10;99.90;11.70;100937;;;;591589;238;24103;-77
2023/07/07 03:12:57;;;;;;;8.60;4.57;;;12.30;99.90;11.90;100948;;;;591307;238;24071;-77
2023/07/07 03:15:39;;;;;;;9.93;4.87;;;12.50;99.90;12.00;100947;;;;591141;239;24065;-77
2023/07/07 03:18:00;;;;;;;7.03;4.37;;;12.60;99.90;12.10;100956;;;;590270;239;24044;-76
2023/07/07 03:20:29;;;;;;;4.67;4.00;;;12.80;99.90;12.20;100950;;;;591195;239;24108;-77
2023/07/07 03:22:57;;;;;;;10.70;6.68;;;12.90;99.90;12.40;100961;;;;585989;239;35003;-78
2023/07/07 03:25:29;;;;;;;8.77;5.10;;;12.90;99.90;12.50;100957;;;;591206;239;24068;-76
2023/07/07 03:27:54;;;;;;;7.40;5.37;;;13.10;99.90;12.60;100962;;;;590810;239;24029;-77
2023/07/07 03:30:23;;;;;;;6.27;5.10;;;13.20;99.90;12.70;100958;;;;591481;239;24034;-78
2023/07/07 03:32:52;;;;;;;7.70;4.83;;;13.30;99.90;12.90;100965;;;;591399;239;24048;-75
2023/07/07 03:35:24;;;;;;;6.87;5.07;;;13.30;99.90;13.00;100978;;;;591793;239;24107;-77
2023/07/07 03:37:47;;;;;;;5.97;4.27;;;13.50;99.90;13.10;100966;;;;588712;239;24095;-76
2023/07/07 03:40:15;;;;;;;5.43;4.60;;;13.60;99.90;13.30;100979;;;;592517;239;24060;-77
2023/07/07 03:42:43;;;;;;;5.73;4.20;;;13.80;99.90;13.50;100973;;;;592623;239;24039;-76
2023/07/07 03:45:11;;;;;;;8.77;5.03;;;14.00;99.90;13.70;100972;;;;591110;239;24046;-77
2023/07/07 03:47:40;;;;;;;7.20;5.43;;;14.20;99.90;13.90;100976;;;;590441;239;24016;-77
2023/07/07 03:50:12;;;;;;;6.03;5.23;;;14.40;99.90;14.10;100979;;;;591124;239;24031;-80
2023/07/07 03:52:36;;;;;;;7.13;4.77;;;14.50;99.90;14.10;100983;;;;588011;239;24130;-79
2023/07/07 03:55:04;;;;;;;6.70;5.20;;;14.70;99.90;14.40;100977;;;;590788;239;24021;-78
2023/07/07 03:57:32;;;;;;;5.70;5.17;;;14.90;99.90;15.50;100985;;;;599914;235;24046;-76
2023/07/07 04:00:00;;;;;;;7.47;5.70;;;15.80;99.90;16.60;100985;;;;591090;239;24034;-76
2023/07/07 04:02:28;;;;;;;9.13;4.70;;;17.80;99.90;17.60;100996;;;;591189;239;24037;-77
2023/07/07 04:04:57;;;;;;;8.07;5.97;;;18.70;99.90;18.40;101000;;;;591014;239;24059;-78
2023/07/07 04:07:25;;;;;;;7.73;4.50;;;18.70;99.90;19.30;101010;;;;591057;239;24027;-78
2023/07/07 04:09:53;;;;;;;8.23;4.77;;;19.60;99.90;20.00;101013;;;;601137;237;24021;-78
2023/07/07 04:12:21;;;;;;;5.00;4.00;;;20.40;99.90;20.80;101017;;;;592018;238;24041;-78
2023/07/07 04:14:49;;;;;;;5.93;3.63;;;21.20;99.90;21.70;101019;;;;591635;238;24047;-77
2023/07/07 04:17:17;;;;;;;3.97;3.60;;;22.10;99.90;22.50;101026;;;;591467;238;24072;-77
2023/07/07 04:19:45;;;;;;;3.20;3.00;;;23.00;99.90;23.40;101032;;;;591198;238;24019;-78
2023/07/07 04:22:12;;;;;;;4.73;2.77;;;24.00;99.90;24.10;101028;;;;591102;238;23071;-78
2023/07/07 04:24:41;;;;;;;4.27;2.93;;;25.00;99.90;24.10;101034;;;;591192;238;24035;-78
2023/07/07 04:27:09;;;;;;;3.53;2.87;;;25.00;99.90;23.30;101030;;;;591040;239;24050;-78
2023/07/07 04:29:41;;;;;;;3.55;2.72;;;24.50;99.90;22.70;101035;;;;585858;239;34930;-77
2023/07/07 04:32:06;;;;;;;3.57;2.60;;;23.80;99.90;22.90;101039;;;;590402;239;23058;-79
2023/07/07 04:34:34;;;;;;;3.70;2.33;;;23.80;99.90;22.80;101043;;;;601368;234;24019;-76
2023/07/07 04:37:02;;;;;;;3.43;2.63;;;23.60;99.90;22.60;101044;;;;590883;239;24024;-77
2023/07/07 04:39:29;;;;;;;3.27;2.63;;;23.40;99.90;22.40;101045;;;;590792;239;24128;-78
2023/07/07 04:41:57;;;;;;;9.07;3.17;;;23.10;99.90;22.40;101047;;;;591389;239;24047;-79
2023/07/07 04:44:25;;;;;;;5.17;2.53;;;23.00;99.90;22.20;101048;;;;591780;239;23065;-81
2023/07/07 04:46:53;;;;;;;3.20;2.90;;;22.90;99.90;22.10;101041;;;;591825;239;24084;-80
2023/07/07 04:49:23;;;;;;;5.27;2.47;;;22.80;99.90;22.10;101040;;;;591376;239;24057;-80
2023/07/07 04:51:49;;;;;;;3.03;2.50;;;22.70;99.90;21.80;101044;;;;591328;239;24092;-78
2023/07/07 04:54:17;;;;;;;2.40;2.20;;;22.50;99.90;21.50;101051;;;;591502;233;24064;-79
2023/07/07 04:56:46;;;;;;;3.33;2.30;;;22.00;99.90;21.40;101047;;;;591369;239;23045;-80
2023/07/07 04:59:17;;;;;;;4.97;2.50;;;21.90;99.90;21.30;101045;;;;591643;239;23141;-78
2023/07/07 05:01:41;;;;;;;2.70;2.47;;;21.80;99.90;21.40;101045;;;;591149;239;24111;-82
2023/07/07 05:04:12;;;;;;;3.87;2.53;;;21.90;99.90;22.50;101055;;;;591365;239;24022;-81
2023/07/07 05:06:40;;;;;;;3.27;2.10;;;22.90;99.90;24.30;101054;;;;591101;239;24098;-79
2023/07/07 05:09:11;;;;;;;2.93;1.83;;;24.80;99.90;26.10;101057;;;;590671;239;23051;-82
2023/07/07 05:11:36;;;;;;;3.17;2.20;;;26.80;99.90;27.70;101047;;;;591714;239;23149;-81
2023/07/07 05:14:04;;;;;;;4.20;1.90;;;28.60;99.90;29.00;101042;;;;591236;239;23037;-83
2023/07/07 05:16:32;;;;;;;4.62;2.00;;;30.00;99.90;30.00;101048;;;;591682;239;23035;-82
2023/07/07 05:19:00;;;;;;;3.92;2.20;;;31.10;99.90;31.00;101045;;;;590946;239;23072;-81
2023/07/07 05:21:31;;;;;;;3.22;2.00;;;32.10;96.50;32.00;101046;;;;592608;238;23095;-82
2023/07/07 05:23:57;;;;;;;3.10;1.77;;;34.20;90.70;33.20;101053;;;;592173;238;23105;-81
2023/07/07 05:26:28;;;;;;;6.03;2.30;;;34.10;90.60;34.10;101057;;;;591895;238;23094;-82
2023/07/07 05:28:53;;;;;;;4.03;2.03;;;35.20;82.30;35.00;101057;;;;591658;238;23087;-81
2023/07/07 05:31:23;;;;;;;3.05;2.20;;;36.10;75.30;35.80;101059;;;;591652;238;23049;-83
2023/07/07 05:33:52;;;;;;;7.60;2.50;;;36.80;68.00;36.60;101056;;;;591324;238;23079;-82
2023/07/07 05:36:20;;;;;;;3.25;2.95;;;37.60;63.80;37.40;101066;;;;568386;247;24170;-81
2023/07/07 05:38:47;;;;;;;8.40;2.58;;;38.40;58.40;38.20;101068;;;;586853;241;23087;-79
2023/07/07 05:41:12;;;;;;;4.87;2.62;;;39.00;53.10;38.40;101072;;;;590848;239;23090;-81
2023/07/07 05:43:41;;;;;;;5.12;2.15;;;39.90;52.20;38.90;101077;;;;591478;239;23036;-79
2023/07/07 05:46:12;;;;;;;4.03;2.05;;;40.40;50.20;39.50;101079;;;;586214;239;45230;-79
2023/07/07 05:48:40;;;;;;;5.37;2.28;;;40.30;50.10;39.60;101080;;;;590733;239;23051;-78
2023/07/07 05:51:12;;;;;;;2.92;2.10;;;40.60;50.20;40.20;101092;;;;590944;239;23091;-78
2023/07/07 05:53:40;;;;;;;4.40;2.03;;;41.10;50.70;40.80;101090;;;;588276;239;23072;-78
2023/07/07 05:56:09;;;;;;;3.20;2.50;;;41.60;47.90;41.30;101091;;;;590595;239;23078;-79
2023/07/07 05:58:40;;;;;;;4.32;2.67;;;42.00;45.70;41.50;101094;;;;590668;238;23087;-80
2023/07/07 06:01:05;;;;;;;3.60;2.53;;;42.30;47.00;41.90;101104;;;;590445;239;23095;-80
2023/07/07 06:03:33;;;;;;;2.72;2.50;;;42.70;45.70;42.10;101111;;;;590873;239;23064;-80
2023/07/07 06:06:01;;;;;;;2.47;2.25;;;42.90;46.00;42.20;101116;;;;590866;239;23063;-79
2023/07/07 06:08:29;;;;;;;8.13;3.10;;;43.00;45.30;42.80;101126;;;;591284;239;23139;-80
2023/07/07 06:10:57;;;;;;;7.25;3.35;;;43.40;43.50;43.00;101123;;;;591069;239;23064;-80
2023/07/07 06:13:28;;;;;;;11.18;3.10;;;43.70;44.10;43.30;101123;;;;591495;239;23072;-80
2023/07/07 06:15:57;;;;;;;7.07;2.53;;;44.20;42.90;43.50;101124;;;;568369;248;23098;-79
2023/07/07 06:18:25;;;;;;;3.28;2.50;;;44.20;42.90;43.70;101129;;;;567760;248;23104;-81
2023/07/07 06:20:53;;;;;;;11.70;2.80;;;44.50;43.10;44.30;101136;;;;566898;248;23142;-81
2023/07/07 06:23:17;;;;;;;9.23;2.50;;;44.90;42.50;44.60;101142;;;;566930;249;23144;-82
2023/07/07 06:25:53;;;;;;;2.35;2.17;;;45.30;42.00;45.10;101131;;;;567404;249;23103;-81
2023/07/07 06:28:20;;;;;;;4.87;2.45;;;45.70;41.00;45.50;101133;;;;566960;248;23111;-82
2023/07/07 06:30:44;;;;;;;3.62;2.05;;;46.10;40.20;45.80;101137;;;;567613;246;23117;-80
2023/07/07 06:33:16;;;;;;;6.90;2.28;;;46.50;40.20;46.10;101140;;;;577704;246;23148;-80
2023/07/07 06:35:40;;;;;;;4.70;2.33;;;46.70;39.80;46.60;101139;;;;558992;250;35293;-81
2023/07/07 06:38:08;;;;;;;4.18;2.45;;;47.50;38.10;47.00;101138;;;;578912;244;23061;-82
2023/07/07 06:40:39;;;;;;;5.05;2.10;;;47.40;38.00;47.10;101142;;;;579335;241;23071;-81
2023/07/07 06:43:04;;;;;;;2.20;2.10;;;47.60;37.30;47.10;101140;;;;577315;248;23150;-81
2023/07/07 06:45:34;;;;;;;3.30;1.77;;;47.60;36.90;47.00;101154;;;;578784;244;23095;-80
2023/07/07 06:48:02;;;;;;;2.12;1.92;;;47.60;36.20;47.30;101141;;;;591835;238;23077;-81
2023/07/07 06:50:28;;;;;;;2.55;1.80;;;47.80;36.00;47.40;101152;;;;592286;239;23054;-79
2023/07/07 06:52:56;;;;;;;2.12;1.90;;;47.90;36.40;47.50;101151;;;;591572;239;23162;-80
2023/07/07 06:55:24;;;;;;;4.40;2.03;;;48.00;36.10;47.60;101152;;;;591655;239;23041;-80
2023/07/07 06:57:52;;;;;;;6.37;1.98;;;48.10;36.30;47.90;101149;;;;591428;239;23071;-81
2023/07/07 07:00:22;;;;;;;2.72;2.10;;;48.30;36.30;48.20;101156;;;;591563;239;23133;-79
2023/07/07 07:02:48;;;;;;;2.53;1.75;;;48.70;35.90;48.30;101158;;;;591367;239;23048;-80
2023/07/07 07:05:17;;;;;;;2.42;2.00;;;48.70;35.70;48.30;101153;;;;591210;239;23118;-78
2023/07/07 07:07:45;;;;;;;2.35;1.90;;;48.60;35.60;48.70;101163;;;;591240;239;23069;-78
2023/07/07 07:10:17;;;;;;;6.28;2.05;;;48.90;35.30;49.00;101163;;;;590969;239;23106;-78
2023/07/07 07:12:41;;;;;;;2.05;1.90;;;49.20;34.20;49.40;101157;;;;591182;239;23112;-81
2023/07/07 07:15:12;;;;;;;7.40;2.10;;;49.60;34.00;49.20;101167;;;;591395;239;23075;-79
2023/07/07 07:17:37;;;;;;;2.83;1.62;;;49.60;33.70;49.00;101164;;;;588953;239;23099;-79
2023/07/07 07:20:05;;;;;;;1.70;1.60;;;49.30;33.50;49.10;101167;;;;591791;239;23059;-80
2023/07/07 07:22:33;;;;;;;2.08;1.90;;;49.40;33.20;49.30;101172;;;;600294;238;23076;-78
2023/07/07 07:25:01;;;;;;;3.17;2.00;;;49.60;33.30;49.40;101176;;;;591437;239;23083;-79
2023/07/07 07:27:30;;;;;;;1.85;1.73;;;49.90;32.90;49.70;101179;;;;591258;239;23103;-79
2023/07/07 07:29:58;;;;;;;4.90;1.77;;;49.90;32.90;50.00;101182;;;;590886;239;23077;-81
2023/07/07 07:32:25;;;;;;;4.93;1.92;;;50.20;32.50;50.30;101182;;;;591196;239;23042;-80
2023/07/07 07:34:53;;;;;;;2.33;1.60;;;50.40;32.70;50.60;101188;;;;591087;239;23061;-83
2023/07/07 07:37:21;;;;;;;1.70;1.60;;;50.70;32.40;50.80;101182;;;;591507;239;23102;-82
2023/07/07 07:39:49;;;;;;;1.85;1.70;;;51.00;31.60;51.10;101189;;;;591215;239;23113;-80
2023/07/07 07:42:20;;;;;;;4.82;1.80;;;51.30;31.50;51.10;101181;;;;591317;239;23044;-82
2023/07/07 07:44:48;;;;;;;2.80;1.70;;;51.40;31.30;51.10;101188;;;;592535;238;23062;-81
2023/07/07 07:47:26;;;;;;;;;;;;;;;;;;;;;
2023/07/07 07:49:44;;;;;;;1.83;1.70;;;51.00;31.60;49.80;101192;;;;590677;238;23055;-79
2023/07/07 07:52:16;;;;;;;1.80;1.80;;;50.40;32.20;48.10;101183;;;;591426;233;23072;-79
2023/07/07 07:54:40;;;;;;;2.28;1.77;;;49.30;31.90;47.50;101194;;;;568335;247;23128;-81
2023/07/07 07:57:08;;;;;;;3.33;1.60;;;48.40;32.50;46.10;101188;;;;578056;241;23058;-80
2023/07/07 07:59:36;;;;;;;6.78;1.50;;;47.10;33.00;46.50;101183;;;;591066;238;23062;-82
2023/07/07 08:02:06;;;;;;;1.75;1.65;;;46.70;34.00;45.70;101179;;;;591131;239;24057;-79
2023/07/07 08:04:32;;;;;;;3.35;1.70;;;46.10;34.50;45.90;101173;;;;590556;239;23091;-79
2023/07/07 08:07:00;;;;;;;4.60;1.40;;;46.10;34.50;47.00;101178;;;;590988;239;23043;-79
2023/07/07 08:09:28;;;;;;;3.78;2.00;;;46.90;34.40;48.20;101178;;;;585845;239;45838;-80
2023/07/07 08:11:57;;;;;;;1.92;1.83;;;49.00;33.40;49.00;101177;;;;590797;239;29475;-79
2023/07/07 08:14:30;;;;;;;2.03;1.92;;;48.90;32.60;49.60;101177;;;;591275;239;23044;-80
2023/07/07 08:16:53;;;;;;;2.58;1.55;;;49.60;32.00;48.20;101177;;;;591279;239;23087;-77
2023/07/07 08:19:20;;;;;;;4.90;2.20;;;49.20;31.20;46.90;101184;;;;591498;239;23046;-80
2023/07/07 08:21:48;;;;;;;2.92;1.80;;;48.10;32.90;47.40;101180;;;;591276;239;23041;-79
2023/07/07 08:24:20;;;;;;;1.73;1.60;;;47.90;32.90;48.20;101179;;;;590995;239;23046;-79
2023/07/07 08:26:46;;;;;;;2.00;1.73;;;48.30;32.90;49.00;101178;;;;590516;239;23158;-80
2023/07/07 08:29:13;;;;;;;2.22;1.80;;;49.30;31.50;48.90;101182;;;;591342;239;23105;-81
2023/07/07 08:31:42;;;;;;;4.93;1.70;;;48.60;31.70;47.70;101186;;;;591516;239;25348;-80
2023/07/07 08:34:13;;;;;;;1.87;1.75;;;48.50;31.60;47.80;101187;;;;591145;239;23111;-81
2023/07/07 08:36:38;;;;;;;2.40;2.00;;;48.30;32.50;48.40;101190;;;;567623;248;23089;-79
2023/07/07 08:39:12;;;;;;;2.58;1.85;;;48.70;33.30;49.20;101191;;;;577924;244;24088;-80
2023/07/07 08:41:39;;;;;;;2.92;1.73;;;49.30;32.40;49.80;101185;;;;591921;239;23033;-81
2023/07/07 08:44:08;;;;;;;1.90;1.75;;;50.60;31.60;50.40;101173;;;;590644;239;23066;-81
2023/07/07 08:46:57;;;;;;;4.10;1.85;;;51.40;31.30;51.20;101169;;;;590286;239;23045;-81
2023/07/07 08:49:47;;;;;;;3.22;1.52;;;51.30;31.20;51.90;101179;;;;590333;239;23056;-80
2023/07/07 08:52:44;;;;;;;1.90;1.80;;;52.30;29.90;52.30;101179;;;;590966;239;23053;-84
2023/07/07 08:55:14;;;;;;;8.35;2.33;;;52.70;30.00;52.70;101176;;;;591465;237;23055;-84
2023/07/07 08:57:45;;;;;;;6.65;2.08;;;53.20;29.80;53.10;101177;;;;592747;238;23105;-86
2023/07/07 09:00:20;;;;;;;6.78;2.30;;;53.60;30.00;53.40;101184;;;;592667;238;23094;-83
2023/07/07 09:03:08;;;;;;;4.30;1.58;;;54.00;29.90;53.90;101185;;;;592744;238;23088;-82
2023/07/07 09:06:19;;;;;;;3.33;1.80;;;55.00;29.10;54.40;101184;;;;592648;238;23025;-84
2023/07/07 09:09:20;;;;;;;3.15;1.90;;;55.00;29.10;54.70;101185;;;;591148;238;23036;-80
2023/07/07 09:12:15;;;;;;;2.75;1.83;;;55.40;28.70;54.40;101174;;;;591787;238;23063;-82
2023/07/07 09:14:43;;;;;;;2.45;2.30;;;55.40;28.60;54.60;101188;;;;600559;239;23079;-82
2023/07/07 09:17:17;;;;;;;3.92;2.10;;;55.60;28.40;54.40;101185;;;;590823;239;23069;-81
2023/07/07 09:19:45;;;;;;;2.12;2.03;;;55.50;28.70;53.80;101185;;;;590817;239;23080;-81
2023/07/07 09:22:37;;;;;;;1.67;1.60;;;53.70;29.10;51.80;101191;;;;590865;239;23109;-80
2023/07/07 09:25:20;;;;;;;3.70;2.05;;;53.70;29.10;50.20;101190;;;;589439;239;23112;-81
2023/07/07 09:27:51;;;;;;;2.10;1.70;;;52.00;29.60;50.80;101196;;;;600157;239;23093;-82
2023/07/07 09:30:31;;;;;;;4.22;1.98;;;51.80;30.10;50.30;101188;;;;588023;239;23132;-81
2023/07/07 09:32:59;;;;;;;1.70;1.60;;;51.60;29.40;49.60;101191;;;;590942;239;24091;-81
2023/07/07 09:35:27;;;;;;;3.40;1.87;;;50.70;29.70;47.70;101190;;;;590941;239;24050;-83
2023/07/07 09:38:12;;;;;;;3.33;1.70;;;49.40;30.00;45.50;101195;;;;588793;239;23064;-80
2023/07/07 09:40:58;;;;;;;2.30;1.92;;;47.40;31.10;46.00;101193;;;;589476;239;23126;-82
2023/07/07 09:43:47;;;;;;;2.95;1.65;;;46.80;33.00;47.50;101186;;;;591067;239;23034;-80
2023/07/07 09:46:21;;;;;;;2.58;1.67;;;47.80;32.20;48.90;101186;;;;588448;239;24122;-83
2023/07/07 09:49:00;;;;;;;6.37;1.70;;;49.30;30.40;50.30;101179;;;;591615;239;23047;-82
2023/07/07 09:51:58;;;;;;;2.92;1.60;;;50.60;29.70;51.10;101179;;;;589062;239;23047;-82
2023/07/07 09:54:26;;;;;;;1.70;1.60;;;52.00;29.50;51.90;101180;;;;580547;239;23083;-80
2023/07/07 09:57:03;;;;;;;2.42;1.83;;;52.90;29.10;51.90;101184;;;;591401;239;23092;-82
2023/07/07 09:59:31;;;;;;;1.70;1.60;;;53.20;28.60;51.90;101184;;;;591129;239;23086;-83
2023/07/07 10:01:59;;;;;;;1.80;1.70;;;53.30;28.70;51.30;101190;;;;588020;239;23084;-82
2023/07/07 10:04:27;;;;;;;2.05;1.70;;;52.80;28.70;51.70;101189;;;;591247;239;23077;-80
2023/07/07 10:06:55;;;;;;;2.62;1.50;;;52.90;29.00;52.40;101177;;;;592580;238;23184;-81
2023/07/07 10:09:26;;;;;;;6.73;2.37;;;53.60;28.20;53.30;101190;;;;587384;238;34875;-80
2023/07/07 10:11:55;;;;;;;4.20;2.30;;;54.60;28.20;53.50;101184;;;;564109;245;35340;-80
2023/07/07 10:14:21;;;;;;;2.97;1.98;;;55.20;27.80;53.60;101179;;;;571066;248;46195;-81
2023/07/07 10:17:09;;;;;;;2.45;1.70;;;55.40;27.80;53.70;101182;;;;577067;246;23098;-84
2023/07/07 10:19:52;;;;;;;3.50;2.17;;;55.50;27.90;52.50;101187;;;;568623;248;23123;-83
2023/07/07 10:22:24;;;;;;;2.08;1.98;;;54.80;27.60;50.40;101181;;;;562022;248;23101;-81
2023/07/07 10:24:51;;;;;;;4.03;2.00;;;52.50;28.20;49.90;101185;;;;578830;239;23065;-82
2023/07/07 10:27:16;;;;;;;4.00;1.58;;;51.60;29.30;49.50;101183;;;;592038;239;23061;-83
2023/07/07 10:29:44;;;;;;;1.80;1.70;;;50.90;29.10;49.10;101181;;;;591638;239;23078;-83
2023/07/07 10:32:23;;;;;;;3.58;1.70;;;50.50;29.20;47.30;101178;;;;591938;239;23100;-83
2023/07/07 10:34:58;;;;;;;1.65;1.62;;;49.30;29.60;46.20;101183;;;;592024;239;23062;-81
2023/07/07 10:37:27;;;;;;;1.80;1.70;;;48.00;30.50;45.40;101180;;;;600566;239;23066;-85
2023/07/07 10:39:58;;;;;;;4.28;1.60;;;47.20;31.60;44.50;101173;;;;591667;233;23036;-81
2023/07/07 10:42:26;;;;;;;1.92;1.70;;;46.20;31.80;42.90;101184;;;;591563;239;23066;-80
2023/07/07 10:44:57;;;;;;;2.58;1.52;;;44.90;32.00;41.90;101169;;;;591707;239;23051;-80
2023/07/07 10:47:30;;;;;;;4.10;1.77;;;43.50;32.80;40.60;101172;;;;591366;239;24089;-81
2023/07/07 10:49:58;;;;;;;1.50;1.40;;;41.90;33.70;39.40;101175;;;;591747;239;24077;-80
2023/07/07 10:52:45;;;;;;;2.37;1.48;;;38.80;35.90;38.30;101164;;;;591244;239;23044;-82
2023/07/07 10:55:25;;;;;;;3.65;1.60;;;38.60;35.80;37.20;101172;;;;590976;239;23032;-78
2023/07/07 10:58:14;;;;;;;1.27;1.27;;;37.50;38.30;36.20;101168;;;;588848;239;23059;-81
2023/07/07 11:01:15;;;;;;;2.47;1.42;;;36.40;39.40;34.90;101164;;;;591415;239;23036;-81
2023/07/07 11:04:01;;;;;;;1.48;1.37;;;35.10;39.90;33.70;101159;;;;591296;239;23044;-78
2023/07/07 11:07:05;;;;;;;2.60;1.33;;;33.80;42.10;33.10;101156;;;;589958;239;23076;-80
2023/07/07 11:09:52;;;;;;;1.15;1.15;;;32.50;42.90;32.50;101148;;;;590700;239;24115;-78
2023/07/07 11:12:32;;;;;;;1.40;1.37;;;32.40;42.80;32.00;101159;;;;572837;239;23043;-79
2023/07/07 11:15:27;;;;;;;4.75;1.17;;;32.00;43.50;31.50;101156;;;;590716;239;23043;-79
2023/07/07 11:17:57;;;;;;;2.03;1.80;;;31.60;44.80;31.20;101155;;;;588681;239;24130;-80
2023/07/07 11:20:37;;;;;;;4.57;1.70;;;31.20;45.50;30.80;101166;;;;603583;237;24068;-79
2023/07/07 11:23:27;;;;;;;1.40;1.30;;;30.40;46.50;30.20;101160;;;;592273;238;23161;-80
2023/07/07 11:26:13;;;;;;;2.00;1.17;;;30.30;46.50;29.90;101156;;;;601310;238;23031;-80
2023/07/07 11:28:52;;;;;;;1.67;1.48;;;30.10;47.70;29.70;101162;;;;602235;238;23055;-79